sensor_id;sensor_type;location;lat;lon;timestamp;temperature;humidity
11497;DHT22;5805;51.542;7.230;2023-03-23T00:00:30;13.70;99.90
11497;DHT22;5805;51.542;7.230;2023-03-23T00:02:55;13.80;99.90
11497;DHT22;5805;51.542;7.230;2023-03-23T00:05:21;13.70;99.90
11497;DHT22;5805;51.542;7.230;2023-03-23T00:07:47;13.70;99.90
11497;DHT22;5805;51.542;7.230;2023-03-23T00:10:13;13.70;99.90
11497;DHT22;5805;51.542;7.230;2023-03-23T00:12:38;13.70;99.90
11497;DHT22;5805;51.542;7.230;2023-03-23T00:15:06;13.70;99.90
11497;DHT22;5805;51.542;7.230;2023-03-23T00:17:34;13.70;99.90
11497;DHT22;5805;51.542;7.230;2023-03-23T00:20:00;13.70;99.90
11497;DHT22;5805;51.542;7.230;2023-03-23T00:22:26;13.80;99.90
11497;DHT22;5805;51.542;7.230;2023-03-23T00:24:52;13.80;99.90
11497;DHT22;5805;51.542;7.230;2023-03-23T00:27:18;13.80;99.90
11497;DHT22;5805;51.542;7.230;2023-03-23T00:29:44;13.80;99.90
11497;DHT22;5805;51.542;7.230;2023-03-23T00:32:09;13.70;99.90
11497;DHT22;5805;51.542;7.230;2023-03-23T00:34:37;13.70;99.90
11497;DHT22;5805;51.542;7.230;2023-03-23T00:37:02;13.80;99.90
11497;DHT22;5805;51.542;7.230;2023-03-23T00:39:28;13.80;99.90
11497;DHT22;5805;51.542;7.230;2023-03-23T00:41:54;13.80;99.90
11497;DHT22;5805;51.542;7.230;2023-03-23T00:44:20;13.70;99.90
11497;DHT22;5805;51.542;7.230;2023-03-23T00:46:47;13.80;99.90
11497;DHT22;5805;51.542;7.230;2023-03-23T00:49:13;13.80;99.90
11497;DHT22;5805;51.542;7.230;2023-03-23T00:51:40;13.80;99.90
11497;DHT22;5805;51.542;7.230;2023-03-23T00:54:06;14.10;99.90
11497;DHT22;5805;51.542;7.230;2023-03-23T00:56:32;13.80;99.90
11497;DHT22;5805;51.542;7.230;2023-03-23T00:58:58;13.80;99.90
11497;DHT22;5805;51.542;7.230;2023-03-23T01:01:23;13.90;99.90
11497;DHT22;5805;51.542;7.230;2023-03-23T01:03:49;13.90;99.90
11497;DHT22;5805;51.542;7.230;2023-03-23T01:06:15;13.90;99.90
11497;DHT22;5805;51.542;7.230;2023-03-23T01:08:42;13.90;99.90
11497;DHT22;5805;51.542;7.230;2023-03-23T01:11:08;13.90;99.90
11497;DHT22;5805;51.542;7.230;2023-03-23T01:13:34;13.90;99.90
11497;DHT22;5805;51.542;7.230;2023-03-23T01:15:59;13.90;99.90
11497;DHT22;5805;51.542;7.230;2023-03-23T01:18:25;13.90;99.90
11497;DHT22;5805;51.542;7.230;2023-03-23T01:20:51;14.00;99.90
11497;DHT22;5805;51.542;7.230;2023-03-23T01:23:16;14.00;99.90
11497;DHT22;5805;51.542;7.230;2023-03-23T01:25:44;14.00;99.90
11497;DHT22;5805;51.542;7.230;2023-03-23T01:28:09;14.00;99.90
11497;DHT22;5805;51.542;7.230;2023-03-23T01:30:35;14.00;99.90
11497;DHT22;5805;51.542;7.230;2023-03-23T01:33:01;14.10;99.90
11497;DHT22;5805;51.542;7.230;2023-03-23T01:35:27;14.00;99.90
11497;DHT22;5805;51.542;7.230;2023-03-23T01:37:53;14.00;99.90
11497;DHT22;5805;51.542;7.230;2023-03-23T01:40:19;14.00;99.90
11497;DHT22;5805;51.542;7.230;2023-03-23T01:42:46;14.00;99.90
11497;DHT22;5805;51.542;7.230;2023-03-23T01:45:25;14.00;99.90
11497;DHT22;5805;51.542;7.230;2023-03-23T01:47:56;14.00;99.90
11497;DHT22;5805;51.542;7.230;2023-03-23T01:50:24;14.00;99.90
11497;DHT22;5805;51.542;7.230;2023-03-23T01:52:51;14.00;99.90
11497;DHT22;5805;51.542;7.230;2023-03-23T01:55:18;14.00;99.90
11497;DHT22;5805;51.542;7.230;2023-03-23T01:57:45;13.90;99.90
11497;DHT22;5805;51.542;7.230;2023-03-23T02:00:13;13.90;99.90
11497;DHT22;5805;51.542;7.230;2023-03-23T02:02:39;13.80;99.90
11497;DHT22;5805;51.542;7.230;2023-03-23T02:05:09;13.80;99.90
11497;DHT22;5805;51.542;7.230;2023-03-23T02:07:36;13.80;99.90
11497;DHT22;5805;51.542;7.230;2023-03-23T02:10:03;13.80;99.90
11497;DHT22;5805;51.542;7.230;2023-03-23T02:12:28;13.80;99.90
11497;DHT22;5805;51.542;7.230;2023-03-23T02:14:56;13.80;99.90
11497;DHT22;5805;51.542;7.230;2023-03-23T02:17:27;13.80;99.90
11497;DHT22;5805;51.542;7.230;2023-03-23T02:20:13;13.80;99.90
11497;DHT22;5805;51.542;7.230;2023-03-23T02:26:03;13.90;99.90
11497;DHT22;5805;51.542;7.230;2023-03-23T02:29:02;13.90;99.90
11497;DHT22;5805;51.542;7.230;2023-03-23T02:32:04;14.00;99.90
11497;DHT22;5805;51.542;7.230;2023-03-23T02:34:38;14.00;99.90
11497;DHT22;5805;51.542;7.230;2023-03-23T02:37:11;14.00;99.90
11497;DHT22;5805;51.542;7.230;2023-03-23T02:39:42;14.00;99.90
11497;DHT22;5805;51.542;7.230;2023-03-23T02:42:10;14.10;99.90
11497;DHT22;5805;51.542;7.230;2023-03-23T02:44:39;13.90;99.90
11497;DHT22;5805;51.542;7.230;2023-03-23T02:47:08;13.90;99.90
11497;DHT22;5805;51.542;7.230;2023-03-23T02:49:40;13.90;99.90
11497;DHT22;5805;51.542;7.230;2023-03-23T02:52:09;14.20;99.90
11497;DHT22;5805;51.542;7.230;2023-03-23T02:54:36;13.90;99.90
11497;DHT22;5805;51.542;7.230;2023-03-23T02:57:02;13.80;99.90
11497;DHT22;5805;51.542;7.230;2023-03-23T02:59:28;13.90;99.90
11497;DHT22;5805;51.542;7.230;2023-03-23T03:02:01;13.80;99.90
11497;DHT22;5805;51.542;7.230;2023-03-23T03:04:30;13.80;99.90
11497;DHT22;5805;51.542;7.230;2023-03-23T03:07:12;13.70;99.90
11497;DHT22;5805;51.542;7.230;2023-03-23T03:09:44;13.90;99.90
11497;DHT22;5805;51.542;7.230;2023-03-23T03:12:15;13.70;99.90
11497;DHT22;5805;51.542;7.230;2023-03-23T03:14:49;13.70;99.90
11497;DHT22;5805;51.542;7.230;2023-03-23T03:17:20;13.70;99.90
11497;DHT22;5805;51.542;7.230;2023-03-23T03:19:50;13.90;99.90
11497;DHT22;5805;51.542;7.230;2023-03-23T03:22:19;13.70;99.90
11497;DHT22;5805;51.542;7.230;2023-03-23T03:24:45;13.70;99.90
11497;DHT22;5805;51.542;7.230;2023-03-23T03:27:12;13.70;99.90
11497;DHT22;5805;51.542;7.230;2023-03-23T03:29:40;13.70;99.90
11497;DHT22;5805;51.542;7.230;2023-03-23T03:32:07;13.70;99.90
11497;DHT22;5805;51.542;7.230;2023-03-23T03:34:34;13.80;99.90
11497;DHT22;5805;51.542;7.230;2023-03-23T03:37:00;13.90;99.90
11497;DHT22;5805;51.542;7.230;2023-03-23T03:39:27;13.90;99.90
11497;DHT22;5805;51.542;7.230;2023-03-23T03:41:53;13.70;99.90
11497;DHT22;5805;51.542;7.230;2023-03-23T03:44:21;13.70;99.90
11497;DHT22;5805;51.542;7.230;2023-03-23T03:46:47;14.00;99.90
11497;DHT22;5805;51.542;7.230;2023-03-23T03:49:12;13.80;99.90
11497;DHT22;5805;51.542;7.230;2023-03-23T03:51:39;13.70;99.90
11497;DHT22;5805;51.542;7.230;2023-03-23T03:54:05;13.70;99.90
11497;DHT22;5805;51.542;7.230;2023-03-23T03:56:33;13.80;99.90
11497;DHT22;5805;51.542;7.230;2023-03-23T03:58:58;13.70;99.90
11497;DHT22;5805;51.542;7.230;2023-03-23T04:01:24;13.70;99.90
11497;DHT22;5805;51.542;7.230;2023-03-23T04:03:50;13.70;99.90
11497;DHT22;5805;51.542;7.230;2023-03-23T04:06:16;13.70;99.90
11497;DHT22;5805;51.542;7.230;2023-03-23T04:08:42;13.70;99.90
11497;DHT22;5805;51.542;7.230;2023-03-23T04:11:09;13.70;99.90
11497;DHT22;5805;51.542;7.230;2023-03-23T04:13:36;13.70;99.90
11497;DHT22;5805;51.542;7.230;2023-03-23T04:16:02;13.70;99.90
11497;DHT22;5805;51.542;7.230;2023-03-23T04:18:28;13.70;99.90
11497;DHT22;5805;51.542;7.230;2023-03-23T04:20:54;13.70;99.90
11497;DHT22;5805;51.542;7.230;2023-03-23T04:23:21;13.70;99.90
11497;DHT22;5805;51.542;7.230;2023-03-23T04:25:47;13.80;99.90
11497;DHT22;5805;51.542;7.230;2023-03-23T04:28:13;13.80;99.90
11497;DHT22;5805;51.542;7.230;2023-03-23T04:30:40;13.70;99.90
11497;DHT22;5805;51.542;7.230;2023-03-23T04:33:05;13.80;99.90
11497;DHT22;5805;51.542;7.230;2023-03-23T04:35:31;13.80;99.90
11497;DHT22;5805;51.542;7.230;2023-03-23T04:37:57;13.80;99.90
11497;DHT22;5805;51.542;7.230;2023-03-23T04:40:23;13.80;99.90
11497;DHT22;5805;51.542;7.230;2023-03-23T04:42:49;13.80;99.90
11497;DHT22;5805;51.542;7.230;2023-03-23T04:45:16;13.80;99.90
11497;DHT22;5805;51.542;7.230;2023-03-23T04:47:43;13.80;99.90
11497;DHT22;5805;51.542;7.230;2023-03-23T04:50:11;13.80;99.90
11497;DHT22;5805;51.542;7.230;2023-03-23T04:52:38;13.90;99.90
11497;DHT22;5805;51.542;7.230;2023-03-23T04:55:05;13.90;99.90
11497;DHT22;5805;51.542;7.230;2023-03-23T04:57:30;13.90;99.90
11497;DHT22;5805;51.542;7.230;2023-03-23T04:59:56;13.90;99.90
11497;DHT22;5805;51.542;7.230;2023-03-23T05:02:22;13.90;99.90
11497;DHT22;5805;51.542;7.230;2023-03-23T05:04:49;13.90;99.90
11497;DHT22;5805;51.542;7.230;2023-03-23T05:07:15;13.90;99.90
11497;DHT22;5805;51.542;7.230;2023-03-23T05:09:40;13.90;99.90
11497;DHT22;5805;51.542;7.230;2023-03-23T05:12:08;14.00;99.90
11497;DHT22;5805;51.542;7.230;2023-03-23T05:14:34;14.00;99.90
11497;DHT22;5805;51.542;7.230;2023-03-23T05:16:59;13.90;99.90
11497;DHT22;5805;51.542;7.230;2023-03-23T05:19:25;14.00;99.90
11497;DHT22;5805;51.542;7.230;2023-03-23T05:21:53;14.00;99.90
11497;DHT22;5805;51.542;7.230;2023-03-23T05:24:18;14.00;99.90
11497;DHT22;5805;51.542;7.230;2023-03-23T05:26:44;14.00;99.90
11497;DHT22;5805;51.542;7.230;2023-03-23T05:29:10;14.10;99.90
11497;DHT22;5805;51.542;7.230;2023-03-23T05:31:35;14.10;99.90
11497;DHT22;5805;51.542;7.230;2023-03-23T05:34:01;14.30;99.90
11497;DHT22;5805;51.542;7.230;2023-03-23T05:36:27;14.10;99.90
11497;DHT22;5805;51.542;7.230;2023-03-23T05:38:54;14.10;99.90
11497;DHT22;5805;51.542;7.230;2023-03-23T05:41:20;14.10;99.90
11497;DHT22;5805;51.542;7.230;2023-03-23T05:43:45;14.10;99.90
11497;DHT22;5805;51.542;7.230;2023-03-23T05:46:11;14.10;99.90
11497;DHT22;5805;51.542;7.230;2023-03-23T05:48:37;14.10;99.90
11497;DHT22;5805;51.542;7.230;2023-03-23T05:51:03;14.10;99.90
11497;DHT22;5805;51.542;7.230;2023-03-23T05:53:28;14.10;99.90
11497;DHT22;5805;51.542;7.230;2023-03-23T05:55:59;14.10;99.90
11497;DHT22;5805;51.542;7.230;2023-03-23T05:58:25;14.20;99.90
11497;DHT22;5805;51.542;7.230;2023-03-23T06:00:50;14.30;99.90
11497;DHT22;5805;51.542;7.230;2023-03-23T06:03:16;14.10;99.90
11497;DHT22;5805;51.542;7.230;2023-03-23T06:05:42;14.20;99.90
11497;DHT22;5805;51.542;7.230;2023-03-23T06:08:08;14.20;99.90
11497;DHT22;5805;51.542;7.230;2023-03-23T06:10:34;14.20;99.90
11497;DHT22;5805;51.542;7.230;2023-03-23T06:13:01;14.20;99.90
11497;DHT22;5805;51.542;7.230;2023-03-23T06:15:26;14.20;99.90
11497;DHT22;5805;51.542;7.230;2023-03-23T06:17:52;14.20;99.90
11497;DHT22;5805;51.542;7.230;2023-03-23T06:20:18;14.20;99.90
11497;DHT22;5805;51.542;7.230;2023-03-23T06:22:43;14.20;99.90
11497;DHT22;5805;51.542;7.230;2023-03-23T06:25:10;14.20;99.90
11497;DHT22;5805;51.542;7.230;2023-03-23T06:27:36;14.30;99.90
11497;DHT22;5805;51.542;7.230;2023-03-23T06:30:04;14.30;99.90
11497;DHT22;5805;51.542;7.230;2023-03-23T06:32:31;14.30;99.90
11497;DHT22;5805;51.542;7.230;2023-03-23T06:34:57;14.30;99.90
11497;DHT22;5805;51.542;7.230;2023-03-23T06:37:23;14.30;99.90
11497;DHT22;5805;51.542;7.230;2023-03-23T06:39:49;14.40;99.90
11497;DHT22;5805;51.542;7.230;2023-03-23T06:42:14;14.40;99.90
11497;DHT22;5805;51.542;7.230;2023-03-23T06:44:40;14.40;99.90
11497;DHT22;5805;51.542;7.230;2023-03-23T06:47:07;14.50;99.90
11497;DHT22;5805;51.542;7.230;2023-03-23T06:49:33;14.50;99.90
11497;DHT22;5805;51.542;7.230;2023-03-23T06:51:59;14.60;99.90
11497;DHT22;5805;51.542;7.230;2023-03-23T06:54:25;14.60;99.90
11497;DHT22;5805;51.542;7.230;2023-03-23T06:56:50;14.60;99.90
11497;DHT22;5805;51.542;7.230;2023-03-23T06:59:16;14.60;99.90
11497;DHT22;5805;51.542;7.230;2023-03-23T07:01:42;14.60;99.90
11497;DHT22;5805;51.542;7.230;2023-03-23T07:04:09;14.70;99.90
11497;DHT22;5805;51.542;7.230;2023-03-23T07:06:35;14.90;99.90
11497;DHT22;5805;51.542;7.230;2023-03-23T07:09:00;14.90;99.90
11497;DHT22;5805;51.542;7.230;2023-03-23T07:11:26;15.00;99.90
11497;DHT22;5805;51.542;7.230;2023-03-23T07:13:52;15.00;99.90
11497;DHT22;5805;51.542;7.230;2023-03-23T07:16:17;15.10;99.90
11497;DHT22;5805;51.542;7.230;2023-03-23T07:18:43;15.10;99.90
11497;DHT22;5805;51.542;7.230;2023-03-23T07:21:10;15.20;99.90
11497;DHT22;5805;51.542;7.230;2023-03-23T07:23:36;15.20;99.90
11497;DHT22;5805;51.542;7.230;2023-03-23T07:26:02;15.20;99.90
11497;DHT22;5805;51.542;7.230;2023-03-23T07:28:27;15.30;99.90
11497;DHT22;5805;51.542;7.230;2023-03-23T07:30:53;15.30;99.90
11497;DHT22;5805;51.542;7.230;2023-03-23T07:33:19;15.30;99.90
11497;DHT22;5805;51.542;7.230;2023-03-23T07:35:44;15.30;99.90
11497;DHT22;5805;51.542;7.230;2023-03-23T07:38:11;15.30;99.90
11497;DHT22;5805;51.542;7.230;2023-03-23T07:40:37;15.40;99.90
11497;DHT22;5805;51.542;7.230;2023-03-23T07:43:03;15.40;99.90
11497;DHT22;5805;51.542;7.230;2023-03-23T07:45:30;15.40;99.90
11497;DHT22;5805;51.542;7.230;2023-03-23T07:47:56;15.30;99.90
11497;DHT22;5805;51.542;7.230;2023-03-23T07:50:22;15.30;99.90
11497;DHT22;5805;51.542;7.230;2023-03-23T07:52:48;15.30;99.90
11497;DHT22;5805;51.542;7.230;2023-03-23T07:55:15;15.40;99.90
11497;DHT22;5805;51.542;7.230;2023-03-23T07:57:41;15.30;99.90
11497;DHT22;5805;51.542;7.230;2023-03-23T08:00:07;15.30;99.90
11497;DHT22;5805;51.542;7.230;2023-03-23T08:02:33;15.30;99.90
11497;DHT22;5805;51.542;7.230;2023-03-23T08:04:59;15.30;99.90
11497;DHT22;5805;51.542;7.230;2023-03-23T08:07:24;15.30;99.90
11497;DHT22;5805;51.542;7.230;2023-03-23T08:09:50;15.30;99.90
11497;DHT22;5805;51.542;7.230;2023-03-23T08:12:17;15.40;99.90
11497;DHT22;5805;51.542;7.230;2023-03-23T08:14:43;15.40;99.90
11497;DHT22;5805;51.542;7.230;2023-03-23T08:17:08;15.40;99.90
11497;DHT22;5805;51.542;7.230;2023-03-23T08:19:34;15.40;99.90
11497;DHT22;5805;51.542;7.230;2023-03-23T08:22:00;15.50;99.90
11497;DHT22;5805;51.542;7.230;2023-03-23T08:24:26;16.00;99.90
11497;DHT22;5805;51.542;7.230;2023-03-23T08:26:51;15.80;99.90
11497;DHT22;5805;51.542;7.230;2023-03-23T08:29:18;15.70;99.90
11497;DHT22;5805;51.542;7.230;2023-03-23T08:31:44;15.70;99.90
11497;DHT22;5805;51.542;7.230;2023-03-23T08:34:10;15.80;99.90
11497;DHT22;5805;51.542;7.230;2023-03-23T08:36:35;16.00;99.90
11497;DHT22;5805;51.542;7.230;2023-03-23T08:39:01;16.10;99.90
11497;DHT22;5805;51.542;7.230;2023-03-23T08:41:27;16.20;99.90
11497;DHT22;5805;51.542;7.230;2023-03-23T08:43:52;16.20;99.90
11497;DHT22;5805;51.542;7.230;2023-03-23T08:46:19;16.30;99.90
11497;DHT22;5805;51.542;7.230;2023-03-23T08:48:46;16.40;99.90
11497;DHT22;5805;51.542;7.230;2023-03-23T08:51:11;16.50;99.90
11497;DHT22;5805;51.542;7.230;2023-03-23T08:53:38;16.40;99.90
11497;DHT22;5805;51.542;7.230;2023-03-23T08:56:06;16.40;99.90
11497;DHT22;5805;51.542;7.230;2023-03-23T08:58:32;16.40;99.90
11497;DHT22;5805;51.542;7.230;2023-03-23T09:00:57;16.60;99.90
11497;DHT22;5805;51.542;7.230;2023-03-23T09:03:24;16.90;99.90
11497;DHT22;5805;51.542;7.230;2023-03-23T09:05:50;17.00;99.90
11497;DHT22;5805;51.542;7.230;2023-03-23T09:08:16;17.00;99.90
11497;DHT22;5805;51.542;7.230;2023-03-23T09:10:41;17.00;99.90
11497;DHT22;5805;51.542;7.230;2023-03-23T09:13:07;16.90;99.90
11497;DHT22;5805;51.542;7.230;2023-03-23T09:15:33;16.90;99.90
11497;DHT22;5805;51.542;7.230;2023-03-23T09:17:59;16.70;99.90
11497;DHT22;5805;51.542;7.230;2023-03-23T09:20:27;16.70;99.90
11497;DHT22;5805;51.542;7.230;2023-03-23T09:22:54;16.60;99.90
11497;DHT22;5805;51.542;7.230;2023-03-23T09:25:22;16.60;99.90
11497;DHT22;5805;51.542;7.230;2023-03-23T09:27:50;16.40;99.90
11497;DHT22;5805;51.542;7.230;2023-03-23T09:30:16;16.40;99.90
11497;DHT22;5805;51.542;7.230;2023-03-23T09:32:41;16.20;99.90
11497;DHT22;5805;51.542;7.230;2023-03-23T09:35:08;16.10;99.90
11497;DHT22;5805;51.542;7.230;2023-03-23T09:37:36;16.10;99.90
11497;DHT22;5805;51.542;7.230;2023-03-23T09:40:01;16.00;99.90
11497;DHT22;5805;51.542;7.230;2023-03-23T09:42:36;16.00;99.90
11497;DHT22;5805;51.542;7.230;2023-03-23T09:45:12;16.10;99.90
11497;DHT22;5805;51.542;7.230;2023-03-23T09:47:49;16.20;99.90
11497;DHT22;5805;51.542;7.230;2023-03-23T09:50:20;16.40;99.90
11497;DHT22;5805;51.542;7.230;2023-03-23T09:52:52;16.60;99.90
11497;DHT22;5805;51.542;7.230;2023-03-23T09:55:21;16.80;99.90
11497;DHT22;5805;51.542;7.230;2023-03-23T09:57:51;16.80;99.90
11497;DHT22;5805;51.542;7.230;2023-03-23T10:00:21;16.70;99.90
11497;DHT22;5805;51.542;7.230;2023-03-23T10:02:54;16.60;99.90
11497;DHT22;5805;51.542;7.230;2023-03-23T10:05:29;16.40;99.90
11497;DHT22;5805;51.542;7.230;2023-03-23T10:07:56;16.00;99.90
11497;DHT22;5805;51.542;7.230;2023-03-23T10:10:25;15.40;99.90
11497;DHT22;5805;51.542;7.230;2023-03-23T10:12:55;15.00;99.90
11497;DHT22;5805;51.542;7.230;2023-03-23T10:15:25;14.70;99.90
11497;DHT22;5805;51.542;7.230;2023-03-23T10:17:56;14.50;99.90
11497;DHT22;5805;51.542;7.230;2023-03-23T10:20:32;14.40;99.90
11497;DHT22;5805;51.542;7.230;2023-03-23T10:23:09;14.20;99.90
11497;DHT22;5805;51.542;7.230;2023-03-23T10:25:41;14.20;99.90
11497;DHT22;5805;51.542;7.230;2023-03-23T10:28:11;14.60;99.90
11497;DHT22;5805;51.542;7.230;2023-03-23T10:30:39;14.10;99.90
11497;DHT22;5805;51.542;7.230;2023-03-23T10:33:11;14.20;99.90
11497;DHT22;5805;51.542;7.230;2023-03-23T10:35:42;14.20;99.90
11497;DHT22;5805;51.542;7.230;2023-03-23T10:38:14;14.20;99.90
11497;DHT22;5805;51.542;7.230;2023-03-23T10:40:48;14.30;99.90
11497;DHT22;5805;51.542;7.230;2023-03-23T10:43:14;14.40;99.90
11497;DHT22;5805;51.542;7.230;2023-03-23T10:45:41;14.30;99.90
11497;DHT22;5805;51.542;7.230;2023-03-23T10:48:12;14.40;99.90
11497;DHT22;5805;51.542;7.230;2023-03-23T10:50:39;14.40;99.90
11497;DHT22;5805;51.542;7.230;2023-03-23T10:53:14;14.50;99.90
11497;DHT22;5805;51.542;7.230;2023-03-23T10:55:41;14.70;99.90
11497;DHT22;5805;51.542;7.230;2023-03-23T10:58:10;14.80;99.90
11497;DHT22;5805;51.542;7.230;2023-03-23T11:00:41;14.90;99.90
11497;DHT22;5805;51.542;7.230;2023-03-23T11:03:25;14.80;99.90
11497;DHT22;5805;51.542;7.230;2023-03-23T11:05:53;14.80;99.90
11497;DHT22;5805;51.542;7.230;2023-03-23T11:08:21;14.80;99.90
11497;DHT22;5805;51.542;7.230;2023-03-23T11:10:50;14.90;99.90
11497;DHT22;5805;51.542;7.230;2023-03-23T11:13:18;15.00;99.90
11497;DHT22;5805;51.542;7.230;2023-03-23T11:15:45;15.10;99.90
11497;DHT22;5805;51.542;7.230;2023-03-23T11:18:13;15.10;99.90
11497;DHT22;5805;51.542;7.230;2023-03-23T11:20:46;15.00;99.90
11497;DHT22;5805;51.542;7.230;2023-03-23T11:23:20;14.80;99.90
11497;DHT22;5805;51.542;7.230;2023-03-23T11:25:56;14.70;99.90
11497;DHT22;5805;51.542;7.230;2023-03-23T11:28:26;14.60;99.90
11497;DHT22;5805;51.542;7.230;2023-03-23T11:30:53;14.60;99.90
11497;DHT22;5805;51.542;7.230;2023-03-23T11:33:19;14.60;99.90
11497;DHT22;5805;51.542;7.230;2023-03-23T11:35:45;14.50;99.90
11497;DHT22;5805;51.542;7.230;2023-03-23T11:38:17;14.50;99.90
11497;DHT22;5805;51.542;7.230;2023-03-23T11:40:48;14.50;99.90
11497;DHT22;5805;51.542;7.230;2023-03-23T11:43:18;14.40;99.90
11497;DHT22;5805;51.542;7.230;2023-03-23T11:45:49;15.00;99.90
11497;DHT22;5805;51.542;7.230;2023-03-23T11:48:20;14.60;99.90
11497;DHT22;5805;51.542;7.230;2023-03-23T11:50:52;14.70;99.90
11497;DHT22;5805;51.542;7.230;2023-03-23T11:53:31;14.70;99.90
11497;DHT22;5805;51.542;7.230;2023-03-23T11:56:07;14.70;99.90
11497;DHT22;5805;51.542;7.230;2023-03-23T11:58:34;14.80;99.90
11497;DHT22;5805;51.542;7.230;2023-03-23T12:01:05;14.80;99.90
11497;DHT22;5805;51.542;7.230;2023-03-23T12:03:54;14.80;99.90
11497;DHT22;5805;51.542;7.230;2023-03-23T12:06:27;14.80;99.90
11497;DHT22;5805;51.542;7.230;2023-03-23T12:09:02;14.80;99.90
11497;DHT22;5805;51.542;7.230;2023-03-23T12:11:38;14.80;99.90
11497;DHT22;5805;51.542;7.230;2023-03-23T12:14:19;14.90;99.90
11497;DHT22;5805;51.542;7.230;2023-03-23T12:16:56;15.20;99.90
11497;DHT22;5805;51.542;7.230;2023-03-23T12:19:31;15.10;99.90
11497;DHT22;5805;51.542;7.230;2023-03-23T12:22:05;15.00;99.90
11497;DHT22;5805;51.542;7.230;2023-03-23T12:24:45;15.00;99.90
11497;DHT22;5805;51.542;7.230;2023-03-23T12:27:20;14.80;99.90
11497;DHT22;5805;51.542;7.230;2023-03-23T12:32:52;14.50;99.90
11497;DHT22;5805;51.542;7.230;2023-03-23T12:35:29;14.50;99.90
11497;DHT22;5805;51.542;7.230;2023-03-23T12:38:09;14.50;99.90
11497;DHT22;5805;51.542;7.230;2023-03-23T12:40:55;14.50;99.90
11497;DHT22;5805;51.542;7.230;2023-03-23T12:43:28;14.40;99.90
11497;DHT22;5805;51.542;7.230;2023-03-23T12:48:52;14.50;99.90
11497;DHT22;5805;51.542;7.230;2023-03-23T12:51:21;14.60;99.90
11497;DHT22;5805;51.542;7.230;2023-03-23T12:53:55;14.60;99.90
11497;DHT22;5805;51.542;7.230;2023-03-23T12:56:26;14.80;99.90
11497;DHT22;5805;51.542;7.230;2023-03-23T12:59:01;14.90;99.90
11497;DHT22;5805;51.542;7.230;2023-03-23T13:01:30;15.00;99.90
11497;DHT22;5805;51.542;7.230;2023-03-23T13:04:00;15.10;99.90
11497;DHT22;5805;51.542;7.230;2023-03-23T13:06:32;15.30;99.90
11497;DHT22;5805;51.542;7.230;2023-03-23T13:09:03;15.50;99.90
11497;DHT22;5805;51.542;7.230;2023-03-23T13:11:33;15.70;99.90
11497;DHT22;5805;51.542;7.230;2023-03-23T13:14:09;16.00;99.90
11497;DHT22;5805;51.542;7.230;2023-03-23T13:16:43;15.90;99.90
11497;DHT22;5805;51.542;7.230;2023-03-23T13:19:16;15.90;99.90
11497;DHT22;5805;51.542;7.230;2023-03-23T13:21:46;15.90;99.90
11497;DHT22;5805;51.542;7.230;2023-03-23T13:24:17;16.10;99.90
11497;DHT22;5805;51.542;7.230;2023-03-23T13:26:43;16.20;99.90
11497;DHT22;5805;51.542;7.230;2023-03-23T13:29:13;16.10;99.90
11497;DHT22;5805;51.542;7.230;2023-03-23T13:31:40;16.10;99.90
11497;DHT22;5805;51.542;7.230;2023-03-23T13:34:18;15.90;99.90
11497;DHT22;5805;51.542;7.230;2023-03-23T13:36:52;15.90;99.90
11497;DHT22;5805;51.542;7.230;2023-03-23T13:39:20;15.80;99.90
11497;DHT22;5805;51.542;7.230;2023-03-23T13:41:48;15.90;99.90
11497;DHT22;5805;51.542;7.230;2023-03-23T13:44:18;16.00;99.90
11497;DHT22;5805;51.542;7.230;2023-03-23T13:46:55;16.10;99.90
11497;DHT22;5805;51.542;7.230;2023-03-23T13:49:22;16.20;99.90
11497;DHT22;5805;51.542;7.230;2023-03-23T13:51:57;16.20;99.90
11497;DHT22;5805;51.542;7.230;2023-03-23T13:54:29;16.10;99.90
11497;DHT22;5805;51.542;7.230;2023-03-23T13:56:56;16.00;99.90
11497;DHT22;5805;51.542;7.230;2023-03-23T13:59:33;16.00;99.90
11497;DHT22;5805;51.542;7.230;2023-03-23T14:02:26;15.80;99.90
11497;DHT22;5805;51.542;7.230;2023-03-23T14:04:52;15.80;99.90
11497;DHT22;5805;51.542;7.230;2023-03-23T14:07:19;15.90;99.90
11497;DHT22;5805;51.542;7.230;2023-03-23T14:09:45;15.80;99.90
11497;DHT22;5805;51.542;7.230;2023-03-23T14:12:16;15.90;99.90
11497;DHT22;5805;51.542;7.230;2023-03-23T14:14:45;15.90;99.90
11497;DHT22;5805;51.542;7.230;2023-03-23T14:17:14;15.90;99.90
11497;DHT22;5805;51.542;7.230;2023-03-23T14:19:42;16.00;99.90
11497;DHT22;5805;51.542;7.230;2023-03-23T14:22:18;16.10;99.90
11497;DHT22;5805;51.542;7.230;2023-03-23T14:24:44;16.20;99.90
11497;DHT22;5805;51.542;7.230;2023-03-23T14:27:11;16.30;99.90
11497;DHT22;5805;51.542;7.230;2023-03-23T14:29:37;16.30;99.90
11497;DHT22;5805;51.542;7.230;2023-03-23T14:32:06;16.30;99.90
11497;DHT22;5805;51.542;7.230;2023-03-23T14:34:32;16.30;99.90
11497;DHT22;5805;51.542;7.230;2023-03-23T14:36:59;16.30;99.90
11497;DHT22;5805;51.542;7.230;2023-03-23T14:39:26;16.40;99.90
11497;DHT22;5805;51.542;7.230;2023-03-23T14:41:54;16.50;99.90
11497;DHT22;5805;51.542;7.230;2023-03-23T14:44:23;16.40;99.90
11497;DHT22;5805;51.542;7.230;2023-03-23T14:46:49;16.40;99.90
11497;DHT22;5805;51.542;7.230;2023-03-23T14:49:19;16.20;99.90
11497;DHT22;5805;51.542;7.230;2023-03-23T14:51:48;16.20;99.90
11497;DHT22;5805;51.542;7.230;2023-03-23T14:54:14;16.30;99.90
11497;DHT22;5805;51.542;7.230;2023-03-23T14:56:40;16.50;99.90
11497;DHT22;5805;51.542;7.230;2023-03-23T14:59:06;16.40;99.90
11497;DHT22;5805;51.542;7.230;2023-03-23T15:01:34;16.40;99.90
11497;DHT22;5805;51.542;7.230;2023-03-23T15:04:03;16.30;99.90
11497;DHT22;5805;51.542;7.230;2023-03-23T15:06:34;16.10;99.90
11497;DHT22;5805;51.542;7.230;2023-03-23T15:09:03;16.00;99.90
11497;DHT22;5805;51.542;7.230;2023-03-23T15:11:32;15.80;99.90
11497;DHT22;5805;51.542;7.230;2023-03-23T15:14:00;15.80;99.90
11497;DHT22;5805;51.542;7.230;2023-03-23T15:16:28;15.90;99.90
11497;DHT22;5805;51.542;7.230;2023-03-23T15:18:56;15.90;99.90
11497;DHT22;5805;51.542;7.230;2023-03-23T15:21:26;15.90;99.90
11497;DHT22;5805;51.542;7.230;2023-03-23T15:23:54;16.00;99.90
11497;DHT22;5805;51.542;7.230;2023-03-23T15:26:26;16.00;99.90
11497;DHT22;5805;51.542;7.230;2023-03-23T15:29:10;16.20;99.90
11497;DHT22;5805;51.542;7.230;2023-03-23T15:31:39;16.30;99.90
11497;DHT22;5805;51.542;7.230;2023-03-23T15:34:05;16.40;99.90
11497;DHT22;5805;51.542;7.230;2023-03-23T15:36:33;16.40;99.90
11497;DHT22;5805;51.542;7.230;2023-03-23T15:39:00;16.40;99.90
11497;DHT22;5805;51.542;7.230;2023-03-23T15:41:28;16.40;99.90
11497;DHT22;5805;51.542;7.230;2023-03-23T15:43:55;16.20;99.90
11497;DHT22;5805;51.542;7.230;2023-03-23T15:46:23;16.10;99.90
11497;DHT22;5805;51.542;7.230;2023-03-23T15:48:50;16.00;99.90
11497;DHT22;5805;51.542;7.230;2023-03-23T15:51:18;15.90;99.90
11497;DHT22;5805;51.542;7.230;2023-03-23T15:53:44;15.80;99.90
11497;DHT22;5805;51.542;7.230;2023-03-23T15:56:13;15.70;99.90
11497;DHT22;5805;51.542;7.230;2023-03-23T15:58:39;15.70;99.90
11497;DHT22;5805;51.542;7.230;2023-03-23T16:01:10;15.60;99.90